| time (UTC) | temp F | wind direction | speed knots | gust knots | rain 1hr in | rain 24hr in | rain mn in | humidity % | barometer mb |
| 20260508220611 | 66 | 155 | 1.7 | 1.7 | 0.00 | 0.00 | 0.00 | 51 | 1005.9 |
| 20260508220108 | 66 | 157 | 0.0 | 0.9 | 0.00 | 0.00 | 0.00 | 56 | 1005.7 |
| 20260508215605 | 66 | 158 | 0.0 | 0.0 | 0.00 | 0.00 | 0.00 | 55 | 1005.9 |
| 20260508215102 | 66 | 152 | 1.7 | 1.7 | 0.00 | 0.00 | 0.00 | 54 | 1005.7 |
| 20260508214559 | 66 | 155 | 1.7 | 1.7 | 0.00 | 0.00 | 0.00 | 51 | 1005.6 |
| 20260508214055 | 66 | 161 | 0.0 | 0.0 | 0.00 | 0.00 | 0.00 | 54 | 1005.9 |
| 20260508213552 | 67 | 160 | 0.0 | 0.0 | 0.00 | 0.00 | 0.00 | 52 | 1005.7 |
| 20260508213048 | 66 | 161 | 0.0 | 0.9 | 0.00 | 0.00 | 0.00 | 54 | 1005.9 |
| 20260508212545 | 66 | 160 | 0.9 | 0.9 | 0.00 | 0.00 | 0.00 | 52 | 1005.9 |
| 20260508212041 | 66 | 155 | 1.7 | 1.7 | 0.00 | 0.00 | 0.00 | 51 | 1005.9 |
| 20260508211537 | 66 | 161 | 0.0 | 0.0 | 0.00 | 0.00 | 0.00 | 52 | 1005.7 |
| 20260508211033 | 66 | 161 | 0.0 | 0.0 | 0.00 | 0.00 | 0.00 | 51 | 1006.3 |
| 20260508210530 | 66 | 153 | 0.9 | 0.9 | 0.00 | 0.00 | 0.00 | 48 | 1006.3 |
| 20260508210028 | 66 | 174 | 2.6 | 2.6 | 0.00 | 0.00 | 0.00 | 51 | 1006.5 |
| 20260508205524 | 66 | 148 | 1.7 | 2.6 | 0.00 | 0.00 | 0.00 | 51 | 1006.3 |
| 20260508205020 | 66 | 155 | 0.9 | 0.9 | 0.00 | 0.00 | 0.00 | 49 | 1006.5 |
| 20260508204518 | 66 | 151 | 2.6 | 3.5 | 0.00 | 0.00 | 0.00 | 54 | 1006.7 |
| 20260508204014 | 66 | 150 | 3.5 | 3.5 | 0.00 | 0.00 | 0.00 | 51 | 1006.7 |
| 20260508203510 | 67 | 164 | 0.9 | 2.6 | 0.00 | 0.00 | 0.00 | 53 | 1006.8 |
| 20260508203005 | 67 | 158 | 1.7 | 1.7 | 0.00 | 0.00 | 0.00 | 52 | 1006.7 |
| 20260508202503 | 67 | 149 | 1.7 | 1.7 | 0.00 | 0.00 | 0.00 | 49 | 1006.7 |
| 20260508202000 | 67 | 178 | 1.7 | 2.6 | 0.00 | 0.00 | 0.00 | 47 | 1006.8 |
| 20260508201456 | 67 | 155 | 0.9 | 0.9 | 0.00 | 0.00 | 0.00 | 51 | 1007.0 |
| 20260508200953 | 67 | 161 | 0.0 | 0.0 | 0.00 | 0.00 | 0.00 | 50 | 1006.7 |
| 20260508200450 | 66 | 164 | 0.9 | 0.9 | 0.00 | 0.00 | 0.00 | 51 | 1006.7 |
| 20260508195944 | 66 | 159 | 0.9 | 1.7 | 0.00 | 0.00 | 0.00 | 51 | 1006.9 |
| 20260508195442 | 67 | 127 | 4.3 | 5.2 | 0.00 | 0.00 | 0.00 | 47 | 1007.0 |
| 20260508194938 | 67 | 151 | 1.7 | 2.6 | 0.00 | 0.00 | 0.00 | 48 | 1007.2 |
| 20260508194436 | 67 | 160 | 0.0 | 0.0 | 0.00 | 0.00 | 0.00 | 47 | 1006.8 |
| 20260508193933 | 67 | 125 | 5.2 | 7.0 | 0.00 | 0.00 | 0.00 | 46 | 1007.1 |
| 20260508193430 | 68 | 173 | 0.9 | 1.7 | 0.00 | 0.00 | 0.00 | 48 | 1007.1 |
| 20260508192926 | 69 | 162 | 1.7 | 2.6 | 0.00 | 0.00 | 0.00 | 46 | 1007.0 |
| 20260508192423 | 69 | 139 | 6.1 | 7.8 | 0.00 | 0.00 | 0.00 | 49 | 1007.0 |
| 20260508191920 | 71 | 120 | 1.7 | 2.6 | 0.00 | 0.00 | 0.00 | 44 | 1006.9 |
| 20260508191417 | 71 | 106 | 9.6 | 13.9 | 0.00 | 0.00 | 0.00 | 50 | 1007.2 |
| 20260508190913 | 72 | 130 | 2.6 | 5.2 | 0.00 | 0.00 | 0.00 | 48 | 1007.2 |
| 20260508190411 | 69 | 153 | 0.9 | 0.9 | 0.00 | 0.00 | 0.00 | 48 | 1007.3 |
| 20260508185907 | 68 | 172 | 2.6 | 3.5 | 0.00 | 0.00 | 0.00 | 47 | 1007.5 |
| 20260508185405 | 69 | 161 | 1.7 | 1.7 | 0.00 | 0.00 | 0.00 | 49 | 1007.7 |
| 20260508184902 | 69 | 144 | 2.6 | 2.6 | 0.00 | 0.00 | 0.00 | 51 | 1007.9 |
| 20260508184359 | 69 | 144 | 3.5 | 5.2 | 0.00 | 0.00 | 0.00 | 45 | 1007.7 |
| 20260508183855 | 69 | 152 | 3.5 | 3.5 | 0.00 | 0.00 | 0.00 | 49 | 1007.8 |
| 20260508183352 | 69 | 71 | 7.0 | 7.8 | 0.00 | 0.00 | 0.00 | 50 | 1007.9 |
| 20260508182848 | 69 | 159 | 6.1 | 7.0 | 0.00 | 0.00 | 0.00 | 47 | 1008.0 |
| 20260508182345 | 69 | 119 | 7.8 | 8.7 | 0.00 | 0.00 | 0.00 | 51 | 1008.1 |
| 20260508181840 | 68 | 148 | 2.6 | 3.5 | 0.00 | 0.00 | 0.00 | 52 | 1008.1 |
| 20260508181337 | 68 | 142 | 5.2 | 7.0 | 0.00 | 0.00 | 0.00 | 49 | 1008.3 |
| 20260508180834 | 70 | 194 | 1.7 | 2.6 | 0.00 | 0.00 | 0.00 | 46 | 1008.5 |
| 20260508180331 | 69 | 145 | 1.7 | 1.7 | 0.00 | 0.00 | 0.00 | 53 | 1008.4 |
| 20260508175827 | 68 | 145 | 7.8 | 9.6 | 0.00 | 0.00 | 0.00 | 48 | 1008.6 |
| 20260508175324 | 67 | 166 | 0.9 | 1.7 | 0.00 | 0.00 | 0.00 | 51 | 1008.6 |
| 20260508174823 | 67 | 154 | 1.7 | 2.6 | 0.00 | 0.00 | 0.00 | 50 | 1008.6 |
| 20260508174319 | 65 | 149 | 0.9 | 0.9 | 0.00 | 0.00 | 0.00 | 55 | 1008.7 |
| 20260508173815 | 65 | 179 | 0.9 | 0.9 | 0.00 | 0.00 | 0.00 | 52 | 1008.7 |
| 20260508173313 | 66 | 156 | 1.7 | 2.6 | 0.00 | 0.00 | 0.00 | 52 | 1009.1 |
| 20260508172809 | 67 | 151 | 0.9 | 1.7 | 0.00 | 0.00 | 0.00 | 50 | 1009.1 |
| 20260508172307 | 66 | 117 | 3.5 | 6.1 | 0.00 | 0.00 | 0.00 | 50 | 1009.1 |
| 20260508171802 | 66 | 154 | 0.0 | 0.0 | 0.00 | 0.00 | 0.00 | 56 | 1009.3 |
| 20260508171258 | 68 | 152 | 1.7 | 2.6 | 0.00 | 0.00 | 0.00 | 52 | 1009.3 |
| 20260508170755 | 67 | 163 | 0.9 | 0.9 | 0.00 | 0.00 | 0.00 | 52 | 1009.2 |
| 20260508170253 | 68 | 134 | 2.6 | 3.5 | 0.00 | 0.00 | 0.00 | 55 | 1009.3 |
| 20260508165744 | 66 | 140 | 1.7 | 2.6 | 0.00 | 0.00 | 0.00 | 56 | 1009.5 |
| 20260508165241 | 67 | 121 | 7.0 | 8.7 | 0.00 | 0.00 | 0.00 | 54 | 1009.7 |
| 20260508164737 | 68 | 156 | 3.5 | 6.1 | 0.00 | 0.00 | 0.00 | 52 | 1009.9 |
| 20260508164234 | 67 | 121 | 4.3 | 7.0 | 0.00 | 0.00 | 0.00 | 55 | 1009.9 |
| 20260508163732 | 67 | 87 | 3.5 | 5.2 | 0.00 | 0.00 | 0.00 | 51 | 1009.9 |
| 20260508163230 | 67 | 119 | 5.2 | 7.8 | 0.00 | 0.00 | 0.00 | 55 | 1009.8 |
| 20260508162725 | 67 | 141 | 2.6 | 3.5 | 0.00 | 0.00 | 0.00 | 52 | 1009.8 |
| 20260508162222 | 67 | 182 | 6.1 | 9.6 | 0.00 | 0.00 | 0.00 | 51 | 1009.8 |
| 20260508161719 | 67 | 154 | 3.5 | 3.5 | 0.00 | 0.00 | 0.00 | 53 | 1010.0 |
| 20260508161217 | 66 | 162 | 1.7 | 2.6 | 0.00 | 0.00 | 0.00 | 51 | 1010.2 |
| 20260508160714 | 66 | 164 | 0.9 | 1.7 | 0.00 | 0.00 | 0.00 | 54 | 1010.1 |
| 20260508160213 | 65 | 147 | 5.2 | 7.8 | 0.00 | 0.00 | 0.00 | 57 | 1010.3 |
| 20260508155709 | 66 | 151 | 3.5 | 6.1 | 0.00 | 0.00 | 0.00 | 53 | 1010.1 |
| 20260508155206 | 66 | 139 | 3.5 | 3.5 | 0.00 | 0.00 | 0.00 | 55 | 1010.4 |
| 20260508154703 | 66 | 159 | 2.6 | 3.5 | 0.00 | 0.00 | 0.00 | 55 | 1010.4 |
| 20260508154200 | 66 | 162 | 0.9 | 1.7 | 0.00 | 0.00 | 0.00 | 57 | 1010.7 |
| 20260508153656 | 65 | 157 | 0.9 | 1.7 | 0.00 | 0.00 | 0.00 | 58 | 1010.5 |
| 20260508153154 | 65 | 145 | 0.0 | 0.9 | 0.00 | 0.00 | 0.00 | 56 | 1010.8 |
| 20260508152650 | 64 | 152 | 1.7 | 2.6 | 0.00 | 0.00 | 0.00 | 57 | 1010.5 |
| 20260508152146 | 65 | 137 | 3.5 | 3.5 | 0.00 | 0.00 | 0.00 | 60 | 1010.5 |
| 20260508151642 | 65 | 191 | 1.7 | 1.7 | 0.00 | 0.00 | 0.00 | 56 | 1010.8 |
| 20260508151139 | 63 | 161 | 1.7 | 2.6 | 0.00 | 0.00 | 0.00 | 56 | 1010.7 |
| 20260508150636 | 63 | 151 | 0.9 | 1.7 | 0.00 | 0.00 | 0.00 | 59 | 1010.9 |
| 20260508150133 | 64 | 146 | 1.7 | 1.7 | 0.00 | 0.00 | 0.00 | 61 | 1011.0 |
| 20260508145629 | 63 | 142 | 2.6 | 3.5 | 0.00 | 0.00 | 0.00 | 55 | 1010.9 |
| 20260508145125 | 64 | 154 | 0.9 | 0.9 | 0.00 | 0.00 | 0.00 | 54 | 1011.0 |
| 20260508144623 | 64 | 143 | 3.5 | 5.2 | 0.00 | 0.00 | 0.00 | 57 | 1010.7 |
| 20260508144120 | 63 | 144 | 0.9 | 1.7 | 0.00 | 0.00 | 0.00 | 60 | 1011.0 |
| 20260508143618 | 62 | 153 | 1.7 | 1.7 | 0.00 | 0.00 | 0.00 | 56 | 1011.0 |
| 20260508143114 | 62 | 121 | 2.6 | 5.2 | 0.00 | 0.00 | 0.00 | 56 | 1011.0 |
| 20260508142611 | 61 | 154 | 3.5 | 5.2 | 0.00 | 0.00 | 0.00 | 55 | 1011.2 |
| 20260508142108 | 62 | 166 | 0.9 | 0.9 | 0.00 | 0.00 | 0.00 | 59 | 1011.2 |
| 20260508141604 | 61 | 145 | 0.9 | 1.7 | 0.00 | 0.00 | 0.00 | 59 | 1011.1 |
| 20260508141102 | 61 | 127 | 3.5 | 5.2 | 0.00 | 0.00 | 0.00 | 57 | 1011.3 |
| 20260508140559 | 61 | 163 | 0.9 | 1.7 | 0.00 | 0.00 | 0.00 | 56 | 1011.4 |
| 20260508140055 | 60 | 134 | 3.5 | 3.5 | 0.00 | 0.00 | 0.00 | 57 | 1011.3 |
| 20260508135551 | 61 | 164 | 4.3 | 7.0 | 0.00 | 0.00 | 0.00 | 56 | 1011.3 |
| 20260508135047 | 60 | 154 | 0.9 | 1.7 | 0.00 | 0.00 | 0.00 | 61 | 1011.4 |
| 20260508134544 | 59 | 124 | 0.0 | 0.9 | 0.00 | 0.00 | 0.00 | 63 | 1011.2 |
| 20260508134041 | 59 | 160 | 0.0 | 0.0 | 0.00 | 0.00 | 0.00 | 60 | 1011.2 |
| 20260508133538 | 59 | 160 | 0.9 | 2.6 | 0.00 | 0.00 | 0.00 | 59 | 1011.2 |
| 20260508133035 | 60 | 168 | 0.9 | 0.9 | 0.00 | 0.00 | 0.00 | 64 | 1011.5 |
| 20260508132533 | 58 | 132 | 1.7 | 2.6 | 0.00 | 0.00 | 0.00 | 62 | 1011.5 |
| 20260508132029 | 57 | 157 | 0.0 | 0.9 | 0.00 | 0.00 | 0.00 | 65 | 1011.4 |
| 20260508131524 | 58 | 157 | 0.0 | 0.0 | 0.00 | 0.00 | 0.00 | 67 | 1011.4 |
| 20260508131021 | 57 | 162 | 0.0 | 0.0 | 0.00 | 0.00 | 0.00 | 66 | 1011.5 |
| 20260508130519 | 59 | 156 | 0.9 | 0.9 | 0.00 | 0.00 | 0.00 | 68 | 1011.4 |
| 20260508130015 | 58 | 163 | 0.0 | 0.0 | 0.00 | 0.00 | 0.00 | 72 | 1011.5 |
| 20260508125511 | 57 | 133 | 0.0 | 0.0 | 0.00 | 0.00 | 0.00 | 73 | 1011.2 |
| 20260508125009 | 56 | 164 | 0.0 | 0.0 | 0.00 | 0.00 | 0.00 | 73 | 1011.3 |
| 20260508124507 | 54 | 162 | 0.0 | 0.0 | 0.00 | 0.00 | 0.00 | 76 | 1011.3 |
| 20260508124004 | 54 | 161 | 0.0 | 0.9 | 0.00 | 0.00 | 0.00 | 76 | 1011.3 |
| 20260508123502 | 53 | 158 | 0.0 | 0.0 | 0.00 | 0.00 | 0.00 | 76 | 1011.5 |
| 20260508122958 | 53 | 163 | 0.0 | 0.0 | 0.00 | 0.00 | 0.00 | 79 | 1011.2 |
| 20260508122455 | 52 | 161 | 0.0 | 0.9 | 0.00 | 0.00 | 0.00 | 78 | 1011.6 |
| 20260508121952 | 51 | 163 | 0.0 | 0.0 | 0.00 | 0.00 | 0.00 | 80 | 1011.5 |
| 20260508121450 | 51 | 121 | 0.0 | 0.9 | 0.00 | 0.00 | 0.00 | 80 | 1011.3 |
| 20260508120948 | 50 | 162 | 0.0 | 0.0 | 0.00 | 0.00 | 0.00 | 83 | 1011.4 |
| 20260508120445 | 48 | 166 | 0.0 | 0.0 | 0.00 | 0.00 | 0.00 | 87 | 1011.2 |
| 20260508115943 | 48 | 161 | 0.9 | 0.9 | 0.00 | 0.00 | 0.00 | 86 | 1011.2 |
| 20260508115441 | 47 | 168 | 0.0 | 0.0 | 0.00 | 0.00 | 0.00 | 90 | 1011.2 |
| 20260508114937 | 45 | 165 | 0.0 | 0.0 | 0.00 | 0.00 | 0.00 | 95 | 1011.1 |
| 20260508114434 | 44 | 163 | 0.0 | 0.0 | 0.00 | 0.00 | 0.00 | 97 | 1011.3 |
| 20260508113931 | 44 | 163 | 0.0 | 0.0 | 0.00 | 0.00 | 0.00 | 98 | 1011.1 |
| 20260508113429 | 44 | 162 | 0.0 | 0.0 | 0.00 | 0.00 | 0.00 | 99 | 1011.3 |
| 20260508112925 | 43 | 163 | 0.0 | 0.0 | 0.00 | 0.00 | 0.00 | 99 | 1011.1 |
| 20260508112422 | 43 | 162 | 0.0 | 0.0 | 0.00 | 0.00 | 0.00 | 99 | 1011.0 |
| 20260508111919 | 43 | 163 | 0.0 | 0.0 | 0.00 | 0.00 | 0.00 | 99 | 1010.9 |
| 20260508111416 | 42 | 163 | 0.0 | 0.0 | 0.00 | 0.00 | 0.00 | 99 | 1011.0 |
| 20260508110913 | 42 | 163 | 0.0 | 0.0 | 0.00 | 0.00 | 0.00 | 99 | 1011.0 |
| 20260508110411 | 42 | 164 | 0.0 | 0.0 | 0.00 | 0.00 | 0.00 | 99 | 1010.7 |
| 20260508105910 | 42 | 166 | 0.0 | 0.0 | 0.00 | 0.00 | 0.00 | 99 | 1010.8 |
| 20260508105407 | 41 | 162 | 0.0 | 0.0 | 0.00 | 0.00 | 0.00 | 99 | 1010.7 |
| 20260508104904 | 41 | 163 | 0.0 | 0.0 | 0.00 | 0.00 | 0.00 | 99 | 1010.5 |
| 20260508104401 | 41 | 164 | 0.0 | 0.0 | 0.00 | 0.00 | 0.00 | 99 | 1010.8 |
| 20260508103858 | 41 | 162 | 0.0 | 0.0 | 0.00 | 0.00 | 0.00 | 99 | 1010.9 |
| 20260508103355 | 40 | 162 | 0.0 | 0.0 | 0.00 | 0.00 | 0.00 | 99 | 1010.8 |
| 20260508102852 | 40 | 161 | 0.0 | 0.0 | 0.00 | 0.00 | 0.00 | 99 | 1010.8 |
| 20260508102351 | 40 | 161 | 0.0 | 0.0 | 0.00 | 0.00 | 0.00 | 99 | 1011.0 |
| 20260508101848 | 40 | 161 | 0.0 | 0.0 | 0.00 | 0.00 | 0.00 | 99 | 1010.9 |
| 20260508101345 | 40 | 161 | 0.0 | 0.0 | 0.00 | 0.00 | 0.00 | 99 | 1011.0 |
| 20260508100842 | 40 | 160 | 0.0 | 0.0 | 0.00 | 0.00 | 0.00 | 99 | 1010.8 |
| 20260508100341 | 40 | 161 | 0.0 | 0.0 | 0.00 | 0.00 | 0.00 | 99 | 1010.9 |
| 20260508095836 | 40 | 161 | 0.0 | 0.0 | 0.00 | 0.00 | 0.00 | 99 | 1010.8 |
| 20260508095334 | 40 | 158 | 0.0 | 0.0 | 0.00 | 0.00 | 0.00 | 99 | 1010.8 |
| 20260508094831 | 40 | 161 | 0.0 | 0.0 | 0.00 | 0.00 | 0.00 | 99 | 1010.9 |
| 20260508094328 | 39 | 161 | 0.0 | 0.0 | 0.00 | 0.00 | 0.00 | 99 | 1010.9 |
| 20260508093825 | 40 | 161 | 0.0 | 0.0 | 0.00 | 0.00 | 0.00 | 99 | 1011.0 |
| 20260508093322 | 40 | 162 | 0.0 | 0.0 | 0.00 | 0.00 | 0.00 | 99 | 1011.0 |
| 20260508092819 | 40 | 162 | 0.0 | 0.0 | 0.00 | 0.00 | 0.00 | 99 | 1011.0 |
| 20260508092317 | 39 | 160 | 0.0 | 0.0 | 0.00 | 0.00 | 0.00 | 99 | 1010.9 |
| 20260508091815 | 40 | 162 | 0.0 | 0.0 | 0.00 | 0.00 | 0.00 | 99 | 1010.7 |
| 20260508091311 | 40 | 167 | 0.0 | 0.0 | 0.00 | 0.00 | 0.00 | 99 | 1011.0 |
| 20260508090809 | 39 | 166 | 0.0 | 0.0 | 0.00 | 0.00 | 0.00 | 99 | 1010.7 |
| 20260508090308 | 39 | 160 | 0.0 | 0.0 | 0.00 | 0.00 | 0.00 | 99 | 1010.9 |
| 20260508085803 | 39 | 162 | 0.0 | 0.0 | 0.00 | 0.00 | 0.00 | 99 | 1010.9 |
| 20260508085300 | 39 | 162 | 0.0 | 0.0 | 0.00 | 0.00 | 0.00 | 99 | 1010.7 |
| 20260508084756 | 38 | 162 | 0.0 | 0.0 | 0.00 | 0.00 | 0.00 | 99 | 1010.8 |
| 20260508084253 | 37 | 169 | 0.0 | 0.0 | 0.00 | 0.00 | 0.00 | 99 | 1010.8 |
| 20260508083751 | 37 | 160 | 0.0 | 0.0 | 0.00 | 0.00 | 0.00 | 99 | 1010.8 |
| 20260508083248 | 37 | 156 | 0.0 | 0.0 | 0.00 | 0.00 | 0.00 | 99 | 1011.0 |
| 20260508082748 | 37 | 160 | 0.0 | 0.0 | 0.00 | 0.00 | 0.00 | 99 | 1010.5 |
| 20260508082246 | 36 | 158 | 0.0 | 0.0 | 0.00 | 0.00 | 0.00 | 99 | 1010.9 |
| 20260508081743 | 37 | 158 | 0.0 | 0.0 | 0.00 | 0.00 | 0.00 | 99 | 1010.8 |
| 20260508081240 | 37 | 160 | 0.0 | 0.0 | 0.00 | 0.00 | 0.00 | 99 | 1010.8 |
| 20260508080737 | 37 | 159 | 0.0 | 0.0 | 0.00 | 0.00 | 0.00 | 99 | 1010.7 |
| 20260508080235 | 37 | 161 | 0.0 | 0.0 | 0.00 | 0.00 | 0.00 | 99 | 1010.8 |
| 20260508075731 | 37 | 161 | 0.0 | 0.0 | 0.00 | 0.00 | 0.00 | 99 | 1010.7 |
| 20260508075228 | 36 | 160 | 0.0 | 0.0 | 0.00 | 0.00 | 0.00 | 99 | 1010.5 |
| 20260508074726 | 36 | 157 | 0.0 | 0.0 | 0.00 | 0.00 | 0.00 | 99 | 1010.8 |
| 20260508074223 | 37 | 157 | 0.0 | 0.0 | 0.00 | 0.00 | 0.00 | 99 | 1010.4 |
| 20260508073719 | 37 | 160 | 0.0 | 0.0 | 0.00 | 0.00 | 0.00 | 99 | 1010.5 |
| 20260508073218 | 37 | 161 | 0.0 | 0.0 | 0.00 | 0.00 | 0.00 | 99 | 1010.8 |
| 20260508072713 | 37 | 161 | 0.0 | 0.0 | 0.00 | 0.00 | 0.00 | 99 | 1010.8 |
| 20260508072210 | 37 | 157 | 0.0 | 0.0 | 0.00 | 0.00 | 0.00 | 99 | 1010.8 |
| 20260508071708 | 37 | 159 | 0.0 | 0.0 | 0.00 | 0.00 | 0.00 | 99 | 1010.7 |
| 20260508071206 | 37 | 161 | 0.0 | 0.0 | 0.00 | 0.00 | 0.00 | 99 | 1010.7 |
| 20260508070703 | 37 | 156 | 0.0 | 0.0 | 0.00 | 0.00 | 0.00 | 99 | 1010.8 |
| 20260508070202 | 37 | 160 | 0.0 | 0.0 | 0.00 | 0.00 | 0.00 | 99 | 1010.7 |
| 20260508065659 | 37 | 161 | 0.0 | 0.0 | 0.00 | 0.00 | 0.00 | 99 | 1010.7 |
| 20260508065156 | 38 | 160 | 0.0 | 0.0 | 0.00 | 0.00 | 0.00 | 99 | 1010.8 |
| 20260508064654 | 38 | 160 | 0.0 | 0.0 | 0.00 | 0.00 | 0.00 | 99 | 1011.0 |
| 20260508064152 | 38 | 160 | 0.0 | 0.0 | 0.00 | 0.00 | 0.00 | 99 | 1011.1 |
| 20260508063649 | 38 | 160 | 0.0 | 0.0 | 0.00 | 0.00 | 0.00 | 99 | 1011.1 |
| 20260508063147 | 37 | 160 | 0.0 | 0.0 | 0.00 | 0.00 | 0.00 | 99 | 1011.2 |
| 20260508062644 | 38 | 161 | 0.0 | 0.0 | 0.00 | 0.00 | 0.00 | 99 | 1011.1 |
| 20260508062141 | 38 | 158 | 0.0 | 0.0 | 0.00 | 0.00 | 0.00 | 99 | 1011.4 |
| 20260508061638 | 38 | 156 | 0.0 | 0.0 | 0.00 | 0.00 | 0.00 | 99 | 1011.4 |
| 20260508061135 | 38 | 160 | 0.0 | 0.0 | 0.00 | 0.00 | 0.00 | 99 | 1011.1 |
| 20260508060632 | 39 | 160 | 0.0 | 0.0 | 0.00 | 0.00 | 0.00 | 99 | 1011.4 |
| 20260508060129 | 39 | 160 | 0.0 | 0.0 | 0.00 | 0.00 | 0.00 | 98 | 1011.2 |
| 20260508055625 | 39 | 163 | 0.0 | 0.0 | 0.00 | 0.00 | 0.00 | 98 | 1011.2 |
| 20260508055122 | 39 | 161 | 0.0 | 0.0 | 0.00 | 0.00 | 0.00 | 98 | 1011.1 |
| 20260508054618 | 39 | 161 | 0.0 | 0.0 | 0.00 | 0.00 | 0.00 | 97 | 1011.4 |
| 20260508054116 | 40 | 161 | 0.0 | 0.0 | 0.00 | 0.00 | 0.00 | 97 | 1011.4 |
| 20260508053612 | 40 | 161 | 0.0 | 0.0 | 0.00 | 0.00 | 0.00 | 96 | 1011.4 |
| 20260508053111 | 39 | 161 | 0.0 | 0.0 | 0.00 | 0.00 | 0.00 | 96 | 1011.3 |
| 20260508052608 | 40 | 160 | 0.0 | 0.0 | 0.00 | 0.00 | 0.00 | 96 | 1011.4 |
| 20260508052105 | 41 | 160 | 0.0 | 0.0 | 0.00 | 0.00 | 0.00 | 94 | 1011.2 |
| 20260508051601 | 40 | 161 | 0.0 | 0.0 | 0.00 | 0.00 | 0.00 | 94 | 1011.3 |
| 20260508051056 | 40 | 160 | 0.0 | 0.0 | 0.00 | 0.00 | 0.00 | 95 | 1011.1 |
| 20260508050552 | 40 | 160 | 0.0 | 0.0 | 0.00 | 0.00 | 0.00 | 95 | 1011.3 |
| 20260508050050 | 41 | 161 | 0.0 | 0.0 | 0.00 | 0.00 | 0.00 | 95 | 1011.2 |
| 20260508045546 | 41 | 160 | 0.0 | 0.0 | 0.00 | 0.00 | 0.00 | 96 | 1011.2 |
| 20260508045044 | 41 | 155 | 0.0 | 0.0 | 0.00 | 0.00 | 0.00 | 97 | 1011.5 |
| 20260508044541 | 40 | 160 | 0.0 | 0.0 | 0.00 | 0.00 | 0.00 | 96 | 1011.3 |
| 20260508044037 | 40 | 162 | 0.0 | 0.0 | 0.00 | 0.00 | 0.00 | 97 | 1011.3 |
| 20260508043534 | 41 | 160 | 0.0 | 0.0 | 0.00 | 0.00 | 0.00 | 97 | 1011.1 |
| 20260508043031 | 41 | 160 | 0.0 | 0.0 | 0.00 | 0.00 | 0.00 | 97 | 1011.2 |
| 20260508042527 | 41 | 160 | 0.0 | 0.0 | 0.00 | 0.00 | 0.00 | 97 | 1011.1 |
| 20260508042025 | 41 | 161 | 0.0 | 0.0 | 0.00 | 0.00 | 0.00 | 97 | 1011.2 |
| 20260508041521 | 40 | 159 | 0.0 | 0.0 | 0.00 | 0.00 | 0.00 | 97 | 1011.2 |
| 20260508041018 | 41 | 160 | 0.0 | 0.0 | 0.00 | 0.00 | 0.00 | 98 | 1011.0 |
| 20260508040515 | 41 | 161 | 0.0 | 0.0 | 0.00 | 0.00 | 0.00 | 97 | 1010.9 |
| 20260508040013 | 41 | 162 | 0.0 | 0.0 | 0.00 | 0.00 | 0.00 | 96 | 1011.0 |
| 20260508035509 | 40 | 160 | 0.0 | 0.0 | 0.00 | 0.00 | 0.00 | 96 | 1010.9 |
| 20260508035006 | 40 | 161 | 0.0 | 0.0 | 0.00 | 0.00 | 0.00 | 95 | 1011.0 |
| 20260508034504 | 41 | 160 | 0.0 | 0.0 | 0.00 | 0.00 | 0.00 | 95 | 1011.1 |
| 20260508034000 | 41 | 161 | 0.0 | 0.0 | 0.00 | 0.00 | 0.00 | 95 | 1010.9 |
| 20260508033458 | 42 | 161 | 0.0 | 0.0 | 0.00 | 0.00 | 0.00 | 95 | 1011.0 |
| 20260508032955 | 42 | 160 | 0.0 | 0.0 | 0.00 | 0.00 | 0.00 | 94 | 1011.1 |
| 20260508032452 | 42 | 160 | 0.0 | 0.0 | 0.00 | 0.00 | 0.00 | 94 | 1011.3 |
| 20260508031949 | 42 | 161 | 0.0 | 0.0 | 0.00 | 0.00 | 0.00 | 94 | 1011.2 |
| 20260508031447 | 42 | 156 | 0.0 | 0.0 | 0.00 | 0.00 | 0.00 | 94 | 1011.3 |
| 20260508030942 | 42 | 161 | 0.0 | 0.0 | 0.00 | 0.00 | 0.00 | 95 | 1010.9 |
| 20260508030439 | 42 | 161 | 0.0 | 0.0 | 0.00 | 0.00 | 0.00 | 96 | 1010.9 |
| 20260508025937 | 42 | 162 | 0.0 | 0.0 | 0.00 | 0.00 | 0.00 | 95 | 1010.9 |
| 20260508025433 | 42 | 160 | 0.0 | 0.0 | 0.00 | 0.00 | 0.00 | 94 | 1010.9 |
| 20260508024930 | 42 | 161 | 0.0 | 0.0 | 0.00 | 0.00 | 0.00 | 94 | 1011.0 |
| 20260508024426 | 42 | 160 | 0.0 | 0.0 | 0.00 | 0.00 | 0.00 | 94 | 1011.1 |
| 20260508023923 | 42 | 159 | 0.0 | 0.0 | 0.00 | 0.00 | 0.00 | 94 | 1011.2 |
| 20260508023420 | 43 | 161 | 0.0 | 0.0 | 0.00 | 0.00 | 0.00 | 92 | 1011.0 |
| 20260508022917 | 43 | 158 | 0.0 | 0.0 | 0.00 | 0.00 | 0.00 | 91 | 1011.1 |
| 20260508022413 | 44 | 161 | 0.0 | 0.0 | 0.00 | 0.00 | 0.00 | 89 | 1010.9 |
| 20260508021910 | 44 | 165 | 0.0 | 0.0 | 0.00 | 0.00 | 0.00 | 88 | 1011.0 |
| 20260508021406 | 44 | 161 | 0.0 | 0.0 | 0.00 | 0.00 | 0.00 | 89 | 1011.0 |
| 20260508020902 | 44 | 159 | 0.0 | 0.0 | 0.00 | 0.00 | 0.00 | 88 | 1010.8 |
| 20260508020400 | 44 | 161 | 0.0 | 0.0 | 0.00 | 0.00 | 0.00 | 85 | 1011.0 |
| 20260508015857 | 44 | 162 | 0.0 | 0.0 | 0.00 | 0.00 | 0.00 | 87 | 1010.5 |
| 20260508015355 | 44 | 160 | 0.0 | 0.0 | 0.00 | 0.00 | 0.00 | 86 | 1010.8 |
| 20260508014851 | 44 | 161 | 0.0 | 0.0 | 0.00 | 0.00 | 0.00 | 87 | 1010.9 |
| 20260508014348 | 45 | 161 | 0.0 | 0.0 | 0.00 | 0.00 | 0.00 | 86 | 1010.5 |
| 20260508013843 | 45 | 161 | 0.0 | 0.0 | 0.00 | 0.00 | 0.00 | 85 | 1010.9 |
| 20260508013340 | 45 | 160 | 0.0 | 0.0 | 0.00 | 0.00 | 0.00 | 83 | 1011.0 |
| 20260508012837 | 46 | 161 | 0.0 | 0.0 | 0.00 | 0.00 | 0.00 | 80 | 1011.0 |
| 20260508012334 | 46 | 160 | 0.0 | 0.0 | 0.00 | 0.00 | 0.00 | 79 | 1010.9 |
| 20260508011832 | 46 | 162 | 0.0 | 0.0 | 0.00 | 0.00 | 0.00 | 79 | 1010.9 |
| 20260508011330 | 47 | 160 | 0.0 | 0.0 | 0.00 | 0.00 | 0.00 | 76 | 1010.7 |
| 20260508010827 | 48 | 160 | 0.0 | 0.0 | 0.00 | 0.00 | 0.00 | 74 | 1010.5 |
| 20260508010324 | 48 | 162 | 0.0 | 0.0 | 0.00 | 0.00 | 0.00 | 73 | 1010.7 |
| 20260508005821 | 48 | 162 | 0.0 | 0.0 | 0.00 | 0.00 | 0.00 | 76 | 1010.8 |
| 20260508005318 | 49 | 161 | 0.0 | 0.0 | 0.00 | 0.00 | 0.00 | 72 | 1010.7 |
| 20260508004815 | 50 | 161 | 0.0 | 0.0 | 0.00 | 0.00 | 0.00 | 71 | 1010.5 |
| 20260508004310 | 50 | 161 | 0.0 | 0.0 | 0.00 | 0.00 | 0.00 | 68 | 1010.5 |
| 20260508003807 | 51 | 161 | 0.0 | 0.0 | 0.00 | 0.00 | 0.00 | 62 | 1010.4 |
| 20260508003304 | 52 | 161 | 0.0 | 0.0 | 0.00 | 0.00 | 0.00 | 61 | 1010.5 |
| 20260508002801 | 53 | 160 | 0.0 | 0.0 | 0.00 | 0.00 | 0.00 | 60 | 1010.7 |
| 20260508002258 | 54 | 159 | 0.0 | 0.0 | 0.00 | 0.00 | 0.00 | 57 | 1010.4 |
| 20260508001754 | 56 | 158 | 0.9 | 0.9 | 0.00 | 0.00 | 0.00 | 57 | 1010.3 |
| 20260508001249 | 57 | 160 | 0.0 | 0.0 | 0.00 | 0.00 | 0.00 | 54 | 1010.3 |
| 20260508000746 | 58 | 157 | 0.0 | 0.0 | 0.00 | 0.00 | 0.00 | 48 | 1010.4 |
| 20260508000243 | 59 | 159 | 0.0 | 0.0 | 0.00 | 0.00 | 0.00 | 53 | 1010.2 |
| 20260507235739 | 59 | 159 | 0.0 | 0.0 | 0.00 | 0.00 | 0.00 | 53 | 1010.7 |
| 20260507235237 | 58 | 157 | 0.0 | 0.0 | 0.00 | 0.00 | 0.00 | 50 | 1010.3 |
| 20260507234734 | 58 | 149 | 0.9 | 1.7 | 0.00 | 0.00 | 0.00 | 50 | 1010.4 |
| 20260507234230 | 58 | 147 | 1.7 | 1.7 | 0.00 | 0.00 | 0.00 | 50 | 1010.3 |
| 20260507233727 | 58 | 113 | 4.3 | 5.2 | 0.00 | 0.00 | 0.00 | 48 | 1010.7 |
| 20260507233225 | 58 | 125 | 5.2 | 6.1 | 0.00 | 0.00 | 0.00 | 48 | 1010.2 |
| 20260507232722 | 59 | 147 | 2.6 | 2.6 | 0.00 | 0.00 | 0.00 | 48 | 1010.1 |
| 20260507232219 | 60 | 135 | 2.6 | 3.5 | 0.00 | 0.00 | 0.00 | 46 | 1010.1 |
| 20260507231716 | 60 | 157 | 1.7 | 1.7 | 0.00 | 0.00 | 0.00 | 46 | 1010.3 |
| 20260507231213 | 60 | 148 | 1.7 | 2.6 | 0.00 | 0.00 | 0.00 | 49 | 1010.2 |
| 20260507230709 | 60 | 153 | 2.6 | 3.5 | 0.00 | 0.00 | 0.00 | 49 | 1010.3 |
| 20260507230207 | 59 | 133 | 3.5 | 3.5 | 0.00 | 0.00 | 0.00 | 46 | 1010.3 |
| 20260507225706 | 60 | 144 | 3.5 | 5.2 | 0.00 | 0.00 | 0.00 | 45 | 1010.3 |
| 20260507225203 | 61 | 121 | 2.6 | 5.2 | 0.00 | 0.00 | 0.00 | 46 | 1010.1 |
| 20260507224658 | 60 | 160 | 0.0 | 0.0 | 0.00 | 0.00 | 0.00 | 41 | 1010.2 |
| 20260507224155 | 60 | 134 | 1.7 | 1.7 | 0.00 | 0.00 | 0.00 | 46 | 1010.1 |
| 20260507223651 | 62 | 142 | 3.5 | 3.5 | 0.00 | 0.00 | 0.00 | 43 | 1010.3 |
| 20260507223148 | 61 | 162 | 0.0 | 0.9 | 0.00 | 0.00 | 0.00 | 43 | 1010.3 |
| 20260507222645 | 60 | 142 | 3.5 | 3.5 | 0.00 | 0.00 | 0.00 | 40 | 1010.2 |
| 20260507222141 | 60 | 132 | 3.5 | 5.2 | 0.00 | 0.00 | 0.00 | 43 | 1010.3 |
| 20260507221638 | 60 | 102 | 7.8 | 7.8 | 0.00 | 0.00 | 0.00 | 44 | 1010.4 |
| 20260507221134 | 60 | 120 | 7.0 | 7.8 | 0.00 | 0.00 | 0.00 | 44 | 1010.4 |
| 20260507220632 | 60 | 123 | 6.1 | 7.0 | 0.00 | 0.00 | 0.00 | 44 | 1010.4 |